Time;durP1;ratioP1;P1;durP2;ratioP2;P2;SDS_P1;SDS_P2;PMS_P1;PMS_P2;Temp;Humidity;BMP_temperature;BMP_pressure;BME280_temperature;BME280_humidity;BME280_pressure;Samples;Min_cycle;Max_cycle;Signal;HPM_P1;HPM_P2
2023/01/04 00:01:39;;;;;;;0.00;0.00;;;;;;;7.41;100.00;101903.19;5023551;28;20043;-79
2023/01/04 00:04:04;;;;;;;0.10;0.10;;;;;;;7.43;100.00;101881.72;5016195;28;20036;-81
2023/01/04 00:06:30;;;;;;;0.10;0.10;;;;;;;7.53;100.00;101890.19;5004998;28;20036;-82
2023/01/04 00:08:55;;;;;;;0.10;0.10;;;;;;;7.46;100.00;101890.47;5020969;28;20068;-79
2023/01/04 00:11:22;;;;;;;0.10;0.10;;;;;;;7.48;100.00;101879.69;5013530;28;20036;-80
2023/01/04 00:13:49;;;;;;;0.10;0.10;;;;;;;7.28;100.00;101881.53;5011109;28;20029;-79
2023/01/04 00:16:16;;;;;;;0.10;0.10;;;;;;;7.33;100.00;101811.84;5012936;28;20433;-76
2023/01/04 00:18:42;;;;;;;0.10;0.10;;;;;;;7.43;100.00;101882.59;5013479;28;20113;-78
2023/01/04 00:21:13;;;;;;;0.10;0.10;;;;;;;7.10;100.00;101856.53;4997633;28;20270;-78
2023/01/04 00:23:40;;;;;;;0.10;0.10;;;;;;;7.15;100.00;101857.19;4996656;28;20453;-80
2023/01/04 00:26:10;;;;;;;0.10;0.10;;;;;;;7.39;100.00;101867.66;4993114;28;22030;-77
2023/01/04 00:28:36;;;;;;;0.10;0.10;;;;;;;7.29;100.00;101856.53;5013683;28;20384;-77
2023/01/04 00:31:03;;;;;;;0.10;0.10;;;;;;;7.34;100.00;101858.97;5013226;28;20029;-81
2023/01/04 00:33:28;;;;;;;0.10;0.10;;;;;;;7.04;100.00;101833.66;4996188;28;20415;-77
2023/01/04 00:35:53;;;;;;;0.10;0.10;;;;;;;7.43;100.00;101842.53;5011939;28;20052;-77
2023/01/04 00:38:19;;;;;;;0.10;0.10;;;;;;;7.39;100.00;101843.59;4997262;28;20158;-79
2023/01/04 00:40:44;;;;;;;0.10;0.10;;;;;;;7.34;100.00;101814.44;5015835;28;20029;-81
2023/01/04 00:43:09;;;;;;;0.10;0.10;;;;;;;7.27;100.00;101790.78;5013906;28;20025;-76
2023/01/04 00:45:35;;;;;;;0.10;0.10;;;;;;;7.38;100.00;101803.63;5015451;28;20029;-79
2023/01/04 00:48:00;;;;;;;0.10;0.10;;;;;;;7.11;100.00;101796.00;5015445;28;20072;-78
2023/01/04 00:50:25;;;;;;;0.10;0.10;;;;;;;7.08;100.00;101805.00;5012127;28;20116;-79
2023/01/04 00:52:51;;;;;;;0.10;0.10;;;;;;;7.20;100.00;101790.19;5019280;28;20029;-78
2023/01/04 00:55:16;;;;;;;0.10;0.10;;;;;;;7.06;100.00;101782.84;5020602;28;20033;-81
2023/01/04 00:57:41;;;;;;;0.10;0.10;;;;;;;7.46;100.00;101788.94;5014902;28;20074;-79
2023/01/04 01:00:07;;;;;;;0.10;0.10;;;;;;;7.57;100.00;101796.41;5009680;28;20034;-79
2023/01/04 01:02:32;;;;;;;0.10;0.10;;;;;;;7.49;100.00;101758.50;4997110;28;20034;-76
2023/01/04 01:04:57;;;;;;;0.10;0.10;;;;;;;7.38;100.00;101761.72;5003463;28;20578;-79
2023/01/04 01:07:23;;;;;;;0.13;0.13;;;;;;;7.22;100.00;101779.44;5013802;28;20021;-78
2023/01/04 01:09:48;;;;;;;0.10;0.10;;;;;;;7.26;100.00;101792.56;5014953;28;20037;-75
2023/01/04 01:12:13;;;;;;;0.10;0.10;;;;;;;7.26;100.00;101739.16;5012257;28;20033;-82
2023/01/04 01:14:39;;;;;;;0.15;0.15;;;;;;;7.26;100.00;101743.63;5014109;28;20037;-76
2023/01/04 01:17:04;;;;;;;0.20;0.20;;;;;;;7.34;100.00;101741.44;5014496;28;20064;-79
2023/01/04 01:19:29;;;;;;;0.10;0.10;;;;;;;7.33;100.00;101753.06;5000621;28;20377;-74
2023/01/04 01:21:56;;;;;;;0.10;0.10;;;;;;;7.33;100.00;101761.06;5014198;28;20041;-76
2023/01/04 01:24:21;;;;;;;0.10;0.10;;;;;;;7.54;100.00;101752.94;4995989;28;20458;-77
2023/01/04 01:26:47;;;;;;;0.10;0.10;;;;;;;7.81;100.00;101767.56;5008597;28;20501;-78
2023/01/04 01:29:12;;;;;;;0.10;0.10;;;;;;;7.96;100.00;101744.50;4993908;28;20072;-74
2023/01/04 01:31:39;;;;;;;0.10;0.10;;;;;;;7.37;100.00;101725.25;5009631;28;20108;-74
2023/01/04 01:34:04;;;;;;;0.10;0.10;;;;;;;7.49;100.00;101681.00;5013695;28;20051;-78
2023/01/04 01:36:29;;;;;;;0.10;0.10;;;;;;;7.66;100.00;101744.28;5011547;28;20698;-78
2023/01/04 01:38:55;;;;;;;0.10;0.10;;;;;;;7.57;100.00;101752.78;5013920;28;20075;-75
2023/01/04 01:41:24;;;;;;;0.10;0.10;;;;;;;7.83;100.00;101750.56;4998123;28;20064;-76
2023/01/04 01:43:54;;;;;;;0.10;0.10;;;;;;;7.63;100.00;101715.94;5014531;28;20128;-73
2023/01/04 01:46:26;;;;;;;0.10;0.10;;;;;;;7.84;100.00;101728.25;5011542;28;20025;-82
2023/01/04 01:48:56;;;;;;;0.10;0.10;;;;;;;7.72;100.00;101730.63;5029971;28;20033;-80
2023/01/04 01:51:21;;;;;;;0.10;0.10;;;;;;;7.80;100.00;101720.41;4993485;28;20067;-78
2023/01/04 01:53:51;;;;;;;0.00;0.00;;;;;;;7.94;100.00;101729.50;4998100;28;20033;-76
2023/01/04 01:56:17;;;;;;;0.10;0.10;;;;;;;7.78;100.00;101708.94;5017902;28;20732;-76
2023/01/04 01:58:50;;;;;;;0.10;0.10;;;;;;;7.68;100.00;101707.66;5022229;28;20037;-78
2023/01/04 02:01:16;;;;;;;0.10;0.10;;;;;;;7.66;100.00;101698.84;5011250;28;20037;-84
2023/01/04 02:03:42;;;;;;;0.10;0.10;;;;;;;8.07;100.00;101735.06;5000888;28;20055;-76
2023/01/04 02:06:11;;;;;;;0.10;0.10;;;;;;;7.73;100.00;101728.78;5000613;28;20464;-78
2023/01/04 02:08:39;;;;;;;0.10;0.10;;;;;;;7.96;100.00;101754.34;4996695;28;20035;-75
2023/01/04 02:11:04;;;;;;;0.10;0.10;;;;;;;7.68;100.00;101707.66;5013056;28;20025;-77
2023/01/04 02:16:27;;;;;;;0.10;0.10;;;;;;;7.96;100.00;101688.34;5014529;28;20048;-82
2023/01/04 02:19:31;;;;;;;0.10;0.10;;;;;;;8.01;100.00;101708.63;5023217;28;20033;-76
2023/01/04 02:22:34;;;;;;;0.10;0.10;;;;;;;7.81;100.00;101719.44;5019661;28;20052;-74
2023/01/04 02:25:02;;;;;;;0.10;0.10;;;;;;;7.89;100.00;101703.00;5020006;28;20124;-78
2023/01/04 02:27:45;;;;;;;0.10;0.10;;;;;;;7.81;100.00;101705.22;5022471;28;20040;-73
2023/01/04 02:30:30;;;;;;;0.10;0.10;;;;;;;7.67;100.00;101681.88;5012246;28;20037;-83
2023/01/04 02:33:04;;;;;;;0.10;0.10;;;;;;;7.75;100.00;101702.84;5023112;28;20151;-75
2023/01/04 02:35:46;;;;;;;0.13;0.13;;;;;;;7.74;100.00;101664.59;5020099;28;20033;-75
2023/01/04 02:38:19;;;;;;;0.10;0.10;;;;;;;7.97;100.00;101678.53;5001930;28;20476;-76
2023/01/04 02:40:50;;;;;;;0.10;0.10;;;;;;;7.88;100.00;101674.53;5004203;28;20107;-75
2023/01/04 02:46:35;;;;;;;0.10;0.10;;;;;;;7.85;100.00;101655.97;5021933;28;20044;-75
2023/01/04 02:51:45;;;;;;;0.10;0.10;;;;;;;7.74;100.00;101623.59;5013785;28;20032;-77
2023/01/04 02:54:14;;;;;;;0.10;0.10;;;;;;;8.03;100.00;101632.75;5016042;28;20029;-72
2023/01/04 02:56:59;;;;;;;0.10;0.10;;;;;;;7.86;100.00;101638.13;5017755;28;20025;-76
2023/01/04 02:59:42;;;;;;;0.10;0.10;;;;;;;8.08;100.00;101648.53;5017783;28;20369;-79
2023/01/04 03:08:29;;;;;;;0.10;0.10;;;;;;;8.05;100.00;101649.56;5014104;28;20048;-78
2023/01/04 03:10:56;;;;;;;0.00;0.00;;;;;;;8.17;100.00;101637.34;5017332;28;20086;-75
2023/01/04 03:13:35;;;;;;;0.10;0.10;;;;;;;8.04;100.00;101620.22;5018634;28;20029;-77
2023/01/04 03:16:05;;;;;;;0.00;0.00;;;;;;;8.03;100.00;101595.31;5015239;28;20115;-73
2023/01/04 03:18:34;;;;;;;0.10;0.10;;;;;;;8.22;100.00;101637.94;5021068;28;20033;-74
2023/01/04 03:21:01;;;;;;;0.10;0.10;;;;;;;8.18;100.00;101616.78;5015515;28;20168;-76
2023/01/04 03:37:30;;;;;;;0.10;0.10;;;;;;;8.27;100.00;101610.94;5017836;28;20039;-74
2023/01/04 03:49:23;;;;;;;;;;;;;;;8.45;100.00;101592.09;5022004;28;20511;-75
2023/01/04 03:51:51;;;;;;;0.10;0.10;;;;;;;8.44;100.00;101563.63;5016659;28;19917;-81
2023/01/04 03:54:21;;;;;;;0.10;0.10;;;;;;;8.50;100.00;101579.38;5021275;28;20074;-80
2023/01/04 03:56:47;;;;;;;0.10;0.10;;;;;;;8.50;100.00;101582.03;5015327;28;20045;-73
2023/01/04 03:59:12;;;;;;;0.05;0.05;;;;;;;8.49;100.00;101551.72;5012467;28;20033;-77
2023/01/04 04:01:38;;;;;;;0.10;0.10;;;;;;;8.62;100.00;101559.91;5014824;28;20153;-73
2023/01/04 04:09:31;;;;;;;0.10;0.10;;;;;;;8.54;100.00;101551.47;5016141;28;20075;-76
2023/01/04 04:11:57;;;;;;;0.10;0.10;;;;;;;8.76;100.00;101553.75;5007674;28;20159;-74
2023/01/04 04:14:22;;;;;;;0.10;0.10;;;;;;;8.69;100.00;101565.78;5020933;28;20585;-77
2023/01/04 04:16:48;;;;;;;0.10;0.10;;;;;;;8.65;100.00;101558.88;5017793;28;20029;-73
2023/01/04 04:19:13;;;;;;;0.10;0.10;;;;;;;8.85;100.00;101555.03;5018769;28;20058;-74
2023/01/04 04:21:38;;;;;;;0.10;0.10;;;;;;;8.77;100.00;101562.66;5015717;28;20033;-78
2023/01/04 04:24:04;;;;;;;0.10;0.10;;;;;;;8.78;100.00;101549.16;5015543;28;20025;-75
2023/01/04 04:26:30;;;;;;;0.10;0.10;;;;;;;8.81;100.00;101554.34;5020093;28;20033;-76
2023/01/04 04:28:55;;;;;;;0.10;0.10;;;;;;;8.80;100.00;101514.28;5014035;28;20036;-75
2023/01/04 04:31:20;;;;;;;0.10;0.10;;;;;;;8.75;100.00;101541.31;5011473;28;20032;-74
2023/01/04 04:33:46;;;;;;;0.10;0.10;;;;;;;8.59;100.00;101509.25;5015317;28;20072;-75
2023/01/04 04:36:11;;;;;;;0.10;0.10;;;;;;;8.93;100.00;101531.31;5020365;28;20046;-73
2023/01/04 04:38:36;;;;;;;0.10;0.10;;;;;;;8.82;100.00;101533.78;5016001;28;20109;-76
2023/01/04 04:43:51;;;;;;;0.10;0.10;;;;;;;8.84;100.00;101543.44;5026358;28;20083;-73
2023/01/04 04:46:16;;;;;;;0.10;0.10;;;;;;;8.79;100.00;101517.91;5018651;28;20423;-77
2023/01/04 04:48:42;;;;;;;0.10;0.10;;;;;;;8.71;100.00;101515.69;5019192;28;20180;-73
2023/01/04 04:51:07;;;;;;;0.10;0.10;;;;;;;8.55;100.00;101479.09;5020292;28;20530;-75
2023/01/04 04:53:32;;;;;;;0.10;0.10;;;;;;;8.77;100.00;101496.56;5013789;28;20049;-76
2023/01/04 04:55:57;;;;;;;0.10;0.10;;;;;;;8.94;100.00;101526.84;5000665;28;20033;-74
2023/01/04 04:58:23;;;;;;;0.10;0.10;;;;;;;8.82;100.00;101518.56;5014528;28;20033;-73
2023/01/04 05:00:48;;;;;;;0.10;0.10;;;;;;;8.77;100.00;101531.38;5016463;28;20033;-72
2023/01/04 05:03:14;;;;;;;0.10;0.10;;;;;;;9.15;100.00;101546.97;5015693;28;20075;-74
2023/01/04 05:05:39;;;;;;;0.10;0.10;;;;;;;8.83;100.00;101498.03;5020992;28;20028;-75
2023/01/04 05:08:04;;;;;;;0.10;0.10;;;;;;;8.84;100.00;101499.75;5019949;28;20087;-76
2023/01/04 05:10:30;;;;;;;0.10;0.10;;;;;;;8.94;100.00;101503.59;5015064;28;20039;-72
2023/01/04 05:12:58;;;;;;;0.00;0.00;;;;;;;9.25;100.00;101501.72;5011820;28;20041;-74
2023/01/04 05:15:24;;;;;;;0.10;0.10;;;;;;;9.13;100.00;101523.94;5016667;28;20461;-74
2023/01/04 05:17:49;;;;;;;0.08;0.08;;;;;;;8.99;100.00;101517.56;4998903;28;20036;-73
2023/01/04 05:20:15;;;;;;;0.10;0.10;;;;;;;9.04;100.00;101522.63;5015560;28;20408;-72
2023/01/04 05:22:40;;;;;;;0.10;0.10;;;;;;;8.99;100.00;101516.72;5014360;28;20544;-73
2023/01/04 05:25:07;;;;;;;0.10;0.10;;;;;;;8.89;100.00;101476.22;5014073;28;20026;-73
2023/01/04 05:27:32;;;;;;;0.00;0.00;;;;;;;9.04;100.00;101486.97;5013786;28;20096;-78
2023/01/04 05:32:41;;;;;;;0.10;0.10;;;;;;;9.22;100.00;101480.47;5016829;28;20068;-75
2023/01/04 05:35:07;;;;;;;0.10;0.10;;;;;;;9.14;100.00;101475.59;5020528;28;20037;-75
2023/01/04 05:37:32;;;;;;;0.10;0.10;;;;;;;9.15;100.00;101471.97;5037872;28;20026;-73
2023/01/04 05:39:58;;;;;;;0.10;0.10;;;;;;;9.15;100.00;101468.41;5020478;28;20471;-73
2023/01/04 05:42:26;;;;;;;0.10;0.10;;;;;;;9.23;100.00;101487.56;5020250;28;20042;-73
2023/01/04 05:44:53;;;;;;;0.10;0.10;;;;;;;9.21;100.00;101454.63;5021050;28;20021;-73
2023/01/04 05:47:18;;;;;;;0.10;0.10;;;;;;;9.09;100.00;101456.25;5007090;28;20030;-75
2023/01/04 05:49:44;;;;;;;0.10;0.10;;;;;;;9.25;100.00;101482.13;5004280;28;20176;-73
2023/01/04 05:52:09;;;;;;;0.00;0.00;;;;;;;9.15;100.00;101441.59;5025829;28;20380;-76
2023/01/04 05:54:35;;;;;;;0.05;0.05;;;;;;;9.06;100.00;101423.44;5018323;28;20057;-77
2023/01/04 05:57:00;;;;;;;0.10;0.10;;;;;;;9.38;100.00;101464.31;5008175;28;20815;-73
2023/01/04 05:59:25;;;;;;;0.10;0.10;;;;;;;9.49;100.00;101455.56;5024317;28;20041;-71
2023/01/04 06:01:51;;;;;;;0.03;0.03;;;;;;;9.38;100.00;101469.66;5016351;28;20076;-72
2023/01/04 06:04:16;;;;;;;0.05;0.05;;;;;;;9.17;100.00;101428.13;5021567;28;20056;-71
2023/01/04 06:06:41;;;;;;;0.10;0.10;;;;;;;9.47;100.00;101452.13;5021165;28;20036;-76
2023/01/04 06:09:07;;;;;;;0.10;0.10;;;;;;;9.37;100.00;101451.84;5022950;28;20432;-73
2023/01/04 06:11:32;;;;;;;0.10;0.10;;;;;;;9.37;100.00;101434.94;5018931;28;20467;-74
2023/01/04 06:13:58;;;;;;;0.10;0.10;;;;;;;9.36;100.00;101442.09;4994921;28;20041;-76
2023/01/04 06:16:23;;;;;;;0.10;0.10;;;;;;;9.23;100.00;101433.97;5020184;28;20036;-75
2023/01/04 06:18:48;;;;;;;0.10;0.10;;;;;;;9.58;100.00;101435.34;5022707;28;20104;-73
2023/01/04 06:21:14;;;;;;;0.10;0.10;;;;;;;9.57;100.00;101418.44;5018729;28;20041;-73
2023/01/04 06:23:39;;;;;;;0.10;0.10;;;;;;;9.48;100.00;101453.00;5007402;28;20108;-73
2023/01/04 06:26:05;;;;;;;0.10;0.10;;;;;;;9.55;100.00;101443.59;5027774;28;20033;-74
2023/01/04 06:28:30;;;;;;;0.10;0.10;;;;;;;9.49;100.00;101415.38;5018312;28;20132;-72
2023/01/04 06:30:55;;;;;;;0.10;0.10;;;;;;;9.61;100.00;101432.50;5016719;28;20029;-73
2023/01/04 06:33:21;;;;;;;0.10;0.10;;;;;;;9.67;100.00;101436.59;5017087;28;20021;-72
2023/01/04 06:35:53;;;;;;;0.10;0.10;;;;;;;9.63;100.00;101405.59;5017914;28;20034;-76
2023/01/04 06:38:19;;;;;;;0.10;0.10;;;;;;;9.64;100.00;101412.69;5009580;28;20109;-74
2023/01/04 06:40:44;;;;;;;0.10;0.10;;;;;;;9.60;100.00;101430.75;5036060;28;20030;-73
2023/01/04 06:43:09;;;;;;;0.10;0.10;;;;;;;9.49;100.00;101433.28;5003910;28;20037;-73
2023/01/04 06:45:35;;;;;;;0.10;0.10;;;;;;;9.62;100.00;101425.31;5018491;28;22531;-74
2023/01/04 06:48:00;;;;;;;0.10;0.10;;;;;;;9.56;100.00;101431.91;5016477;28;20026;-77
2023/01/04 06:50:25;;;;;;;0.10;0.10;;;;;;;9.45;100.00;101414.72;4994713;28;20041;-75
2023/01/04 06:52:50;;;;;;;0.10;0.10;;;;;;;9.68;100.00;101455.28;5015957;28;20053;-73
2023/01/04 06:55:16;;;;;;;0.10;0.10;;;;;;;9.55;100.00;101425.72;5010417;28;20125;-79
2023/01/04 06:57:41;;;;;;;0.00;0.00;;;;;;;9.76;100.00;101460.13;5009150;28;20401;-75
2023/01/04 07:00:08;;;;;;;0.00;0.00;;;;;;;9.75;100.00;101442.31;5014490;28;20094;-73
2023/01/04 07:02:33;;;;;;;0.10;0.10;;;;;;;9.66;100.00;101457.19;5016270;28;20022;-76
2023/01/04 07:04:59;;;;;;;0.10;0.10;;;;;;;9.90;100.00;101452.06;5016834;28;20064;-76
2023/01/04 07:07:24;;;;;;;0.10;0.10;;;;;;;9.87;100.00;101454.06;5011159;28;20058;-73
2023/01/04 07:09:50;;;;;;;0.10;0.10;;;;;;;9.81;100.00;101436.56;5015237;28;20364;-75
2023/01/04 07:12:15;;;;;;;0.05;0.05;;;;;;;9.68;100.00;101423.09;5017463;28;20115;-73
2023/01/04 07:14:40;;;;;;;0.10;0.10;;;;;;;9.67;100.00;101437.47;5018858;28;20032;-72
2023/01/04 07:17:06;;;;;;;0.10;0.10;;;;;;;9.67;100.00;101410.66;5016730;28;20037;-73
2023/01/04 07:19:31;;;;;;;0.10;0.10;;;;;;;9.64;100.00;101424.25;5012110;28;20113;-74
2023/01/04 07:21:57;;;;;;;0.10;0.10;;;;;;;9.86;100.00;101420.16;5017465;28;20033;-73
2023/01/04 07:24:24;;;;;;;0.10;0.10;;;;;;;9.67;100.00;101397.25;5004126;28;20115;-76
2023/01/04 07:26:49;;;;;;;0.10;0.10;;;;;;;9.80;100.00;101405.34;4998522;28;20496;-73
2023/01/04 07:29:18;;;;;;;0.00;0.00;;;;;;;9.85;100.00;101392.50;5021366;28;20037;-73
2023/01/04 07:31:46;;;;;;;0.00;0.00;;;;;;;9.93;100.00;101417.97;5004058;28;20472;-73
2023/01/04 07:34:12;;;;;;;0.00;0.00;;;;;;;9.81;100.00;101382.94;5033193;28;20034;-72
2023/01/04 07:36:38;;;;;;;0.10;0.10;;;;;;;9.94;100.00;101371.38;5017073;28;20037;-78
2023/01/04 07:39:04;;;;;;;0.10;0.10;;;;;;;9.94;100.00;101380.28;5012413;28;20041;-76
2023/01/04 07:41:29;;;;;;;0.00;0.00;;;;;;;9.92;100.00;101384.06;5017474;28;20063;-73
2023/01/04 07:43:55;;;;;;;0.00;0.00;;;;;;;10.02;100.00;101375.28;5016718;28;20038;-74
2023/01/04 07:46:20;;;;;;;0.10;0.10;;;;;;;10.15;100.00;101383.38;4996023;28;20058;-73
2023/01/04 07:48:46;;;;;;;0.00;0.00;;;;;;;10.03;100.00;101365.41;5015212;28;20668;-77
2023/01/04 07:51:11;;;;;;;0.10;0.10;;;;;;;10.11;100.00;101376.47;5012345;28;20127;-78
2023/01/04 07:53:37;;;;;;;0.05;0.05;;;;;;;10.09;100.00;101353.38;5001006;28;20036;-78
2023/01/04 07:56:02;;;;;;;0.08;0.08;;;;;;;10.01;100.00;101349.41;5010333;28;20499;-77
2023/01/04 07:58:31;;;;;;;0.10;0.10;;;;;;;10.02;100.00;101336.84;4995898;28;20034;-76
2023/01/04 08:01:05;;;;;;;0.10;0.10;;;;;;;10.18;100.00;101356.34;5001044;28;20605;-78
2023/01/04 08:03:30;;;;;;;0.03;0.03;;;;;;;10.02;100.00;101344.91;5015627;28;20033;-75
2023/01/04 08:05:56;;;;;;;0.10;0.10;;;;;;;10.13;100.00;101337.00;5015316;28;21981;-72
2023/01/04 08:08:22;;;;;;;0.00;0.00;;;;;;;10.18;100.00;101352.78;5006692;28;20029;-72
2023/01/04 08:10:48;;;;;;;0.00;0.00;;;;;;;10.23;100.00;101345.28;5017739;28;20128;-74
2023/01/04 08:13:13;;;;;;;0.08;0.08;;;;;;;10.22;100.00;101340.88;5015923;28;20025;-73
2023/01/04 08:15:38;;;;;;;0.10;0.10;;;;;;;10.33;100.00;101364.28;5001081;28;20029;-77
2023/01/04 08:18:04;;;;;;;0.03;0.03;;;;;;;10.16;100.00;101352.88;5015455;28;20037;-73
2023/01/04 08:20:29;;;;;;;0.00;0.00;;;;;;;10.21;100.00;101340.00;5013828;28;20161;-73
2023/01/04 08:22:55;;;;;;;0.00;0.00;;;;;;;10.10;100.00;101344.38;4991708;28;20132;-74
2023/01/04 08:25:20;;;;;;;0.10;0.10;;;;;;;10.10;100.00;101352.41;5017540;28;20044;-75
2023/01/04 08:27:45;;;;;;;0.00;0.00;;;;;;;10.25;100.00;101370.19;5020914;28;20147;-74
2023/01/04 08:30:11;;;;;;;0.10;0.10;;;;;;;10.36;100.00;101369.44;5018703;28;20472;-73
2023/01/04 08:32:38;;;;;;;0.10;0.10;;;;;;;10.42;100.00;101365.50;5004490;28;20030;-71
2023/01/04 08:35:04;;;;;;;0.10;0.10;;;;;;;10.34;100.00;101360.63;5019858;28;20452;-74
2023/01/04 08:37:30;;;;;;;0.10;0.10;;;;;;;10.40;100.00;101373.69;5004309;28;20108;-75
2023/01/04 08:39:56;;;;;;;0.00;0.00;;;;;;;10.15;100.00;101358.34;5001125;28;20377;-77
2023/01/04 08:42:21;;;;;;;0.10;0.10;;;;;;;10.52;100.00;101363.03;5014023;28;20111;-78
2023/01/04 08:44:46;;;;;;;0.10;0.10;;;;;;;10.52;100.00;101381.84;5009934;28;20032;-73
2023/01/04 08:47:12;;;;;;;0.03;0.03;;;;;;;10.49;100.00;101369.50;5015578;28;20057;-72
2023/01/04 08:49:37;;;;;;;0.00;0.00;;;;;;;10.57;100.00;101383.25;5014499;28;20063;-75
2023/01/04 08:52:03;;;;;;;0.05;0.05;;;;;;;10.59;100.00;101378.63;5016205;28;20365;-73
2023/01/04 08:54:28;;;;;;;0.00;0.00;;;;;;;10.67;100.00;101402.28;4997792;28;20068;-77
2023/01/04 08:56:53;;;;;;;0.10;0.10;;;;;;;10.68;100.00;101369.09;5009064;28;20041;-76
2023/01/04 08:59:19;;;;;;;0.00;0.00;;;;;;;10.52;100.00;101365.72;5014728;28;20057;-75
2023/01/04 09:01:44;;;;;;;0.10;0.10;;;;;;;10.60;100.00;101379.50;5013103;28;20163;-75
2023/01/04 09:04:10;;;;;;;0.10;0.10;;;;;;;10.57;100.00;101368.97;5010916;28;20465;-74
2023/01/04 09:06:36;;;;;;;0.00;0.00;;;;;;;10.54;100.00;101351.25;5018406;28;20099;-74
2023/01/04 09:09:02;;;;;;;0.10;0.10;;;;;;;10.69;100.00;101357.38;5010661;28;20717;-76
2023/01/04 09:11:27;;;;;;;0.10;0.10;;;;;;;10.61;100.00;101362.41;5009398;28;20204;-74
2023/01/04 09:13:57;;;;;;;0.10;0.10;;;;;;;10.79;100.00;101371.00;5011381;28;20021;-76
2023/01/04 09:16:23;;;;;;;0.00;0.00;;;;;;;10.86;100.00;101361.53;5013600;28;20079;-76
2023/01/04 09:18:48;;;;;;;0.10;0.10;;;;;;;10.61;100.00;101327.50;5010903;28;20029;-75
2023/01/04 09:21:16;;;;;;;0.10;0.10;;;;;;;10.91;100.00;101378.19;5010619;28;20555;-77
2023/01/04 09:23:42;;;;;;;0.10;0.10;;;;;;;10.78;100.00;101364.75;5000605;28;20507;-79
2023/01/04 09:26:18;;;;;;;0.10;0.10;;;;;;;10.76;100.00;101363.16;5008941;28;20136;-74
2023/01/04 09:28:44;;;;;;;0.10;0.10;;;;;;;10.84;100.00;101368.88;5011394;28;20029;-77
2023/01/04 09:31:14;;;;;;;0.00;0.00;;;;;;;10.70;100.00;101326.88;4993464;28;20097;-76
2023/01/04 09:33:40;;;;;;;0.00;0.00;;;;;;;10.53;100.00;101344.16;4995764;28;20211;-74
2023/01/04 09:36:06;;;;;;;0.10;0.10;;;;;;;10.62;100.00;101372.19;5016187;28;20618;-74
2023/01/04 09:38:33;;;;;;;0.00;0.00;;;;;;;10.61;100.00;101375.84;5000617;28;20035;-74
2023/01/04 09:41:23;;;;;;;0.10;0.10;;;;;;;10.59;100.00;101369.72;5013139;28;20037;-77
2023/01/04 09:43:57;;;;;;;0.00;0.00;;;;;;;10.56;100.00;101373.47;5015453;28;20059;-72
2023/01/04 09:46:31;;;;;;;;;;;;;;;10.55;100.00;101376.25;5013596;28;20021;-74
2023/01/04 09:49:17;;;;;;;0.05;0.05;;;;;;;10.63;100.00;101368.53;5017290;28;20047;-75
2023/01/04 09:51:56;;;;;;;0.10;0.10;;;;;;;10.54;100.00;101371.84;4994719;28;20091;-76
2023/01/04 09:54:27;;;;;;;0.00;0.00;;;;;;;10.50;100.00;101364.00;5008617;28;20033;-74
2023/01/04 09:56:54;;;;;;;0.10;0.10;;;;;;;10.52;100.00;101353.19;5011701;28;21419;-75
2023/01/04 09:59:29;;;;;;;0.10;0.10;;;;;;;10.56;100.00;101359.19;5006390;28;20108;-75
2023/01/04 10:01:58;;;;;;;0.10;0.10;;;;;;;10.41;100.00;101339.63;5011264;28;20041;-76
2023/01/04 10:04:29;;;;;;;0.10;0.10;;;;;;;10.58;100.00;101368.00;5012531;28;20033;-80
2023/01/04 10:06:56;;;;;;;0.00;0.00;;;;;;;10.46;100.00;101373.22;5014543;28;20041;-75
2023/01/04 10:09:21;;;;;;;0.00;0.00;;;;;;;10.43;100.00;101362.72;5018718;28;20218;-76
2023/01/04 10:12:08;;;;;;;0.00;0.00;;;;;;;10.48;100.00;101367.78;5013645;28;20633;-74
2023/01/04 10:14:46;;;;;;;0.00;0.00;;;;;;;10.44;100.00;101382.38;5018867;28;20063;-75
2023/01/04 10:17:49;;;;;;;0.05;0.05;;;;;;;10.50;100.00;101379.28;5011122;28;20088;-75
2023/01/04 10:20:49;;;;;;;0.10;0.10;;;;;;;10.55;100.00;101373.56;5014192;28;20056;-77
2023/01/04 10:23:39;;;;;;;0.10;0.10;;;;;;;10.35;100.00;101355.16;5026788;28;20504;-79
2023/01/04 10:26:07;;;;;;;0.10;0.10;;;;;;;10.61;100.00;101367.78;5017742;28;20180;-77
2023/01/04 10:28:45;;;;;;;0.10;0.10;;;;;;;10.48;100.00;101368.63;5012995;28;20028;-71
2023/01/04 10:31:15;;;;;;;0.10;0.10;;;;;;;10.42;100.00;101365.50;5014262;28;20029;-76
2023/01/04 10:34:15;;;;;;;0.10;0.10;;;;;;;10.49;100.00;101369.50;5010832;28;20028;-73
2023/01/04 10:36:41;;;;;;;0.10;0.10;;;;;;;10.42;100.00;101341.34;5017446;28;20034;-75
2023/01/04 10:39:15;;;;;;;0.10;0.10;;;;;;;10.42;100.00;101354.75;5010885;28;20678;-74
2023/01/04 10:41:42;;;;;;;;;;;;;;;10.52;100.00;101373.78;4998381;28;20120;-74
2023/01/04 10:44:14;;;;;;;0.10;0.10;;;;;;;10.52;100.00;101363.03;5009227;28;19959;-75
2023/01/04 10:46:45;;;;;;;0.10;0.10;;;;;;;10.50;100.00;101369.38;5020713;28;20124;-75
2023/01/04 10:49:22;;;;;;;0.10;0.10;;;;;;;10.38;100.00;101346.03;5019942;28;20060;-76
2023/01/04 10:52:01;;;;;;;0.10;0.10;;;;;;;10.39;100.00;101341.56;5016594;28;20025;-76
2023/01/04 10:54:47;;;;;;;0.10;0.10;;;;;;;10.54;100.00;101361.09;5014822;28;20065;-73
2023/01/04 10:57:22;;;;;;;0.10;0.10;;;;;;;10.56;100.00;101367.25;5012505;28;20165;-77
2023/01/04 10:59:50;;;;;;;0.00;0.00;;;;;;;10.58;100.00;101374.25;5014838;28;20033;-74
2023/01/04 11:02:31;;;;;;;0.10;0.10;;;;;;;10.62;100.00;101374.88;5013863;28;20071;-74
2023/01/04 11:05:25;;;;;;;0.10;0.10;;;;;;;10.63;100.00;101365.84;5017537;28;20151;-74
2023/01/04 11:07:54;;;;;;;0.10;0.10;;;;;;;10.52;100.00;101339.75;5018459;28;20124;-76
2023/01/04 11:10:25;;;;;;;0.10;0.10;;;;;;;10.56;100.00;101362.75;5012922;28;20123;-75
2023/01/04 11:12:51;;;;;;;0.00;0.00;;;;;;;10.64;100.00;101352.31;5010439;28;20032;-76
2023/01/04 11:15:16;;;;;;;0.00;0.00;;;;;;;10.58;100.00;101352.75;5014460;28;20037;-72
2023/01/04 11:17:42;;;;;;;0.10;0.10;;;;;;;10.56;100.00;101346.63;5014747;28;20029;-75
2023/01/04 11:20:08;;;;;;;0.10;0.10;;;;;;;10.41;100.00;101329.75;5001669;28;20442;-74
2023/01/04 11:22:41;;;;;;;0.10;0.10;;;;;;;10.54;100.00;101350.38;5013216;28;20030;-76
2023/01/04 11:25:12;;;;;;;0.10;0.10;;;;;;;10.68;100.00;101362.84;5013044;28;20598;-74
2023/01/04 11:27:47;;;;;;;0.10;0.10;;;;;;;10.54;100.00;101328.88;5002568;28;20029;-75
2023/01/04 11:30:16;;;;;;;0.10;0.10;;;;;;;10.71;100.00;101341.13;5012056;28;20029;-75
2023/01/04 11:33:10;;;;;;;0.10;0.10;;;;;;;10.56;100.00;101329.66;5013493;28;20079;-75
2023/01/04 11:35:44;;;;;;;0.05;0.05;;;;;;;10.53;100.00;101344.16;5018405;28;20042;-73
2023/01/04 11:38:15;;;;;;;0.10;0.10;;;;;;;10.65;100.00;101353.19;5016197;28;20351;-76
2023/01/04 11:40:41;;;;;;;0.10;0.10;;;;;;;10.57;100.00;101342.09;4997545;28;20021;-78
2023/01/04 11:43:17;;;;;;;0.00;0.00;;;;;;;10.66;100.00;101354.91;5010178;28;20040;-74
2023/01/04 11:46:02;;;;;;;0.10;0.10;;;;;;;10.70;100.00;101352.84;5013500;28;20057;-75
2023/01/04 11:48:39;;;;;;;0.10;0.10;;;;;;;10.67;100.00;101345.88;5012591;28;20041;-77
2023/01/04 11:51:08;;;;;;;0.00;0.00;;;;;;;10.58;100.00;101363.50;5009959;28;20036;-74
2023/01/04 11:53:35;;;;;;;0.10;0.10;;;;;;;10.57;100.00;101350.16;5008348;28;20025;-75
2023/01/04 11:56:16;;;;;;;0.00;0.00;;;;;;;10.64;100.00;101363.03;5013345;28;20044;-73
2023/01/04 11:58:43;;;;;;;0.10;0.10;;;;;;;10.52;100.00;101344.25;5010900;28;20040;-73
2023/01/04 12:01:23;;;;;;;0.10;0.10;;;;;;;10.57;100.00;101355.53;5015800;28;20029;-76
2023/01/04 12:03:49;;;;;;;0.10;0.10;;;;;;;10.53;100.00;101340.59;5013408;28;20432;-76
2023/01/04 12:06:20;;;;;;;0.10;0.10;;;;;;;10.73;100.00;101341.88;5017465;28;20466;-76
2023/01/04 12:08:46;;;;;;;0.00;0.00;;;;;;;10.58;100.00;101338.47;5019787;28;20549;-75
2023/01/04 12:11:19;;;;;;;0.00;0.00;;;;;;;10.50;100.00;101320.22;5019755;28;20026;-75
2023/01/04 12:13:45;;;;;;;0.10;0.10;;;;;;;10.71;100.00;101319.66;5016638;28;20082;-75
2023/01/04 12:16:24;;;;;;;0.00;0.00;;;;;;;10.72;100.00;101351.78;5016301;28;20055;-77
2023/01/04 12:18:50;;;;;;;0.00;0.00;;;;;;;10.55;100.00;101334.16;5007654;28;20531;-73